sensor_id;sensor_type;location;lat;lon;timestamp;P1;P2;P0
72031;PMS5003;49185;42.320;23.198;2023-06-22T00:02:13;20.00;19.25;8.00
72031;PMS5003;49185;42.320;23.198;2023-06-22T00:04:39;20.00;18.67;9.00
72031;PMS5003;49185;42.320;23.198;2023-06-22T00:07:05;20.33;19.33;11.33
72031;PMS5003;49185;42.320;23.198;2023-06-22T00:09:30;22.00;21.00;9.00
72031;PMS5003;49185;42.320;23.198;2023-06-22T00:11:56;20.25;20.00;9.00
72031;PMS5003;49185;42.320;23.198;2023-06-22T00:14:22;21.00;19.00;10.00
72031;PMS5003;49185;42.320;23.198;2023-06-22T00:16:47;22.00;19.00;9.00
72031;PMS5003;49185;42.320;23.198;2023-06-22T00:19:13;22.00;20.00;8.00
72031;PMS5003;49185;42.320;23.198;2023-06-22T00:21:38;23.00;22.00;10.00
72031;PMS5003;49185;42.320;23.198;2023-06-22T00:24:04;22.00;22.00;10.00
72031;PMS5003;49185;42.320;23.198;2023-06-22T00:26:29;23.50;21.25;10.00
72031;PMS5003;49185;42.320;23.198;2023-06-22T00:28:55;21.00;21.00;8.00
72031;PMS5003;49185;42.320;23.198;2023-06-22T00:31:20;19.00;18.67;8.33
72031;PMS5003;49185;42.320;23.198;2023-06-22T00:33:46;21.67;17.00;9.00
72031;PMS5003;49185;42.320;23.198;2023-06-22T00:36:11;21.00;19.00;9.00
72031;PMS5003;49185;42.320;23.198;2023-06-22T00:38:36;22.00;20.00;10.00
72031;PMS5003;49185;42.320;23.198;2023-06-22T00:41:02;24.00;22.00;11.00
72031;PMS5003;49185;42.320;23.198;2023-06-22T00:43:27;23.00;21.67;12.67
72031;PMS5003;49185;42.320;23.198;2023-06-22T00:45:54;21.00;19.00;9.33
72031;PMS5003;49185;42.320;23.198;2023-06-22T00:48:20;21.00;19.00;10.00
72031;PMS5003;49185;42.320;23.198;2023-06-22T00:50:46;21.00;19.00;9.00
72031;PMS5003;49185;42.320;23.198;2023-06-22T00:53:13;20.50;18.00;8.25
72031;PMS5003;49185;42.320;23.198;2023-06-22T00:55:41;22.33;19.00;10.67
72031;PMS5003;49185;42.320;23.198;2023-06-22T00:58:07;23.25;21.50;10.00
72031;PMS5003;49185;42.320;23.198;2023-06-22T01:00:33;24.00;21.50;11.00
72031;PMS5003;49185;42.320;23.198;2023-06-22T01:02:59;24.00;23.00;11.33
72031;PMS5003;49185;42.320;23.198;2023-06-22T01:05:24;24.50;22.00;12.00
72031;PMS5003;49185;42.320;23.198;2023-06-22T01:08:01;21.00;19.67;9.00
72031;PMS5003;49185;42.320;23.198;2023-06-22T01:11:01;21.25;20.50;8.25
72031;PMS5003;49185;42.320;23.198;2023-06-22T01:13:32;21.25;20.25;8.25
72031;PMS5003;49185;42.320;23.198;2023-06-22T01:18:55;22.00;18.75;9.00
72031;PMS5003;49185;42.320;23.198;2023-06-22T01:21:25;18.75;16.00;8.75
72031;PMS5003;49185;42.320;23.198;2023-06-22T01:29:32;22.00;22.00;10.25
72031;PMS5003;49185;42.320;23.198;2023-06-22T01:31:59;21.00;20.00;11.00
72031;PMS5003;49185;42.320;23.198;2023-06-22T01:34:27;21.00;21.00;9.00
72031;PMS5003;49185;42.320;23.198;2023-06-22T01:36:55;21.00;20.75;9.00
72031;PMS5003;49185;42.320;23.198;2023-06-22T01:39:22;23.00;21.00;8.75
72031;PMS5003;49185;42.320;23.198;2023-06-22T01:41:48;21.00;20.50;8.25
72031;PMS5003;49185;42.320;23.198;2023-06-22T01:44:14;20.00;19.00;9.00
72031;PMS5003;49185;42.320;23.198;2023-06-22T01:46:40;20.00;19.50;9.50
72031;PMS5003;49185;42.320;23.198;2023-06-22T01:49:07;19.50;19.50;8.25
72031;PMS5003;49185;42.320;23.198;2023-06-22T01:51:33;19.00;18.00;10.00
72031;PMS5003;49185;42.320;23.198;2023-06-22T01:53:59;19.00;19.00;7.00
72031;PMS5003;49185;42.320;23.198;2023-06-22T01:56:24;19.33;18.33;7.33
72031;PMS5003;49185;42.320;23.198;2023-06-22T01:58:58;18.75;18.25;10.25
72031;PMS5003;49185;42.320;23.198;2023-06-22T02:01:32;20.50;20.00;9.00
72031;PMS5003;49185;42.320;23.198;2023-06-22T02:04:05;20.00;20.00;9.00
72031;PMS5003;49185;42.320;23.198;2023-06-22T02:06:37;23.00;22.00;10.00
72031;PMS5003;49185;42.320;23.198;2023-06-22T02:09:11;21.00;19.00;9.00
72031;PMS5003;49185;42.320;23.198;2023-06-22T02:11:40;21.25;19.00;10.00
72031;PMS5003;49185;42.320;23.198;2023-06-22T02:14:07;24.00;21.50;11.00
72031;PMS5003;49185;42.320;23.198;2023-06-22T02:16:33;25.00;22.00;11.00
72031;PMS5003;49185;42.320;23.198;2023-06-22T02:19:00;24.00;21.50;11.00
72031;PMS5003;49185;42.320;23.198;2023-06-22T02:21:27;25.00;22.50;12.00
72031;PMS5003;49185;42.320;23.198;2023-06-22T02:23:53;24.00;21.00;12.00
72031;PMS5003;49185;42.320;23.198;2023-06-22T02:26:19;22.00;22.00;11.00
72031;PMS5003;49185;42.320;23.198;2023-06-22T02:28:45;21.00;21.00;8.25
72031;PMS5003;49185;42.320;23.198;2023-06-22T02:31:10;22.00;20.67;9.67
72031;PMS5003;49185;42.320;23.198;2023-06-22T02:33:36;22.00;20.00;11.00
72031;PMS5003;49185;42.320;23.198;2023-06-22T02:36:01;21.33;19.67;9.67
72031;PMS5003;49185;42.320;23.198;2023-06-22T02:38:27;22.00;21.75;11.50
72031;PMS5003;49185;42.320;23.198;2023-06-22T02:40:53;24.00;23.67;12.00
72031;PMS5003;49185;42.320;23.198;2023-06-22T02:43:18;25.00;24.00;12.33
72031;PMS5003;49185;42.320;23.198;2023-06-22T02:45:43;25.67;25.00;12.00
72031;PMS5003;49185;42.320;23.198;2023-06-22T02:48:09;27.00;25.00;13.00
72031;PMS5003;49185;42.320;23.198;2023-06-22T02:50:35;26.75;24.00;11.00
72031;PMS5003;49185;42.320;23.198;2023-06-22T02:53:00;26.00;24.00;12.33
72031;PMS5003;49185;42.320;23.198;2023-06-22T02:55:26;23.00;22.00;12.00
72031;PMS5003;49185;42.320;23.198;2023-06-22T02:57:51;21.00;21.00;10.67
72031;PMS5003;49185;42.320;23.198;2023-06-22T03:00:16;22.33;21.00;11.00
72031;PMS5003;49185;42.320;23.198;2023-06-22T03:02:45;25.00;22.33;10.00
72031;PMS5003;49185;42.320;23.198;2023-06-22T03:05:12;21.50;21.00;10.00
72031;PMS5003;49185;42.320;23.198;2023-06-22T03:07:41;19.50;19.50;9.00
72031;PMS5003;49185;42.320;23.198;2023-06-22T03:27:33;19.50;19.00;8.00
72031;PMS5003;49185;42.320;23.198;2023-06-22T03:30:18;20.00;19.00;8.00
72031;PMS5003;49185;42.320;23.198;2023-06-22T03:33:04;22.00;19.00;9.25
72031;PMS5003;49185;42.320;23.198;2023-06-22T03:35:50;21.00;19.00;11.00
72031;PMS5003;49185;42.320;23.198;2023-06-22T03:38:36;20.00;19.25;8.50
72031;PMS5003;49185;42.320;23.198;2023-06-22T03:41:21;20.75;20.25;8.75
72031;PMS5003;49185;42.320;23.198;2023-06-22T03:44:07;19.75;19.00;8.00
72031;PMS5003;49185;42.320;23.198;2023-06-22T03:46:53;21.25;20.00;7.75
72031;PMS5003;49185;42.320;23.198;2023-06-22T03:49:38;21.50;20.00;10.00
72031;PMS5003;49185;42.320;23.198;2023-06-22T03:52:24;18.00;17.00;8.00
72031;PMS5003;49185;42.320;23.198;2023-06-22T03:55:10;19.00;18.00;8.00
72031;PMS5003;49185;42.320;23.198;2023-06-22T03:57:56;20.25;18.00;8.00
72031;PMS5003;49185;42.320;23.198;2023-06-22T04:00:41;20.50;19.50;8.75
72031;PMS5003;49185;42.320;23.198;2023-06-22T04:03:27;18.50;16.50;7.00
72031;PMS5003;49185;42.320;23.198;2023-06-22T04:06:13;18.00;17.50;7.00
72031;PMS5003;49185;42.320;23.198;2023-06-22T04:08:58;19.00;19.00;11.00
72031;PMS5003;49185;42.320;23.198;2023-06-22T04:11:44;19.25;18.75;11.00
72031;PMS5003;49185;42.320;23.198;2023-06-22T04:14:30;23.00;22.00;12.00
72031;PMS5003;49185;42.320;23.198;2023-06-22T04:17:16;24.00;21.00;12.00
72031;PMS5003;49185;42.320;23.198;2023-06-22T04:19:41;23.33;21.33;10.00
72031;PMS5003;49185;42.320;23.198;2023-06-22T04:22:07;24.00;23.00;11.00
72031;PMS5003;49185;42.320;23.198;2023-06-22T04:24:33;25.67;25.67;13.67
72031;PMS5003;49185;42.320;23.198;2023-06-22T04:26:58;27.00;26.00;14.00
72031;PMS5003;49185;42.320;23.198;2023-06-22T04:29:24;24.33;24.00;13.00
72031;PMS5003;49185;42.320;23.198;2023-06-22T04:31:49;22.00;21.00;12.00
72031;PMS5003;49185;42.320;23.198;2023-06-22T04:34:14;23.00;21.00;11.00
72031;PMS5003;49185;42.320;23.198;2023-06-22T04:36:40;23.67;23.00;11.00
72031;PMS5003;49185;42.320;23.198;2023-06-22T04:39:10;24.50;23.75;13.00
72031;PMS5003;49185;42.320;23.198;2023-06-22T04:41:36;25.00;23.25;15.50
72031;PMS5003;49185;42.320;23.198;2023-06-22T04:44:02;27.00;25.00;18.00
72031;PMS5003;49185;42.320;23.198;2023-06-22T04:46:28;26.00;24.67;16.00
72031;PMS5003;49185;42.320;23.198;2023-06-22T04:48:53;24.67;24.67;14.67
72031;PMS5003;49185;42.320;23.198;2023-06-22T04:51:19;25.00;24.00;14.67
72031;PMS5003;49185;42.320;23.198;2023-06-22T04:53:44;23.00;23.00;13.67
72031;PMS5003;49185;42.320;23.198;2023-06-22T04:56:09;25.00;25.00;14.00
72031;PMS5003;49185;42.320;23.198;2023-06-22T04:58:35;26.33;25.00;14.00
72031;PMS5003;49185;42.320;23.198;2023-06-22T05:01:01;23.33;22.00;13.00
72031;PMS5003;49185;42.320;23.198;2023-06-22T05:03:26;22.00;20.00;12.00
72031;PMS5003;49185;42.320;23.198;2023-06-22T05:05:52;23.67;23.00;13.00
72031;PMS5003;49185;42.320;23.198;2023-06-22T05:08:17;24.75;24.00;14.50
72031;PMS5003;49185;42.320;23.198;2023-06-22T05:10:43;24.00;24.00;13.00
72031;PMS5003;49185;42.320;23.198;2023-06-22T05:13:08;25.00;24.00;13.67
72031;PMS5003;49185;42.320;23.198;2023-06-22T05:15:34;22.67;22.00;12.67
72031;PMS5003;49185;42.320;23.198;2023-06-22T05:17:59;22.00;22.00;12.00
72031;PMS5003;49185;42.320;23.198;2023-06-22T05:20:24;20.00;20.00;12.00
72031;PMS5003;49185;42.320;23.198;2023-06-22T05:22:50;18.67;18.67;10.67
72031;PMS5003;49185;42.320;23.198;2023-06-22T05:25:15;20.00;19.00;11.33
72031;PMS5003;49185;42.320;23.198;2023-06-22T05:27:41;21.33;20.33;10.33
72031;PMS5003;49185;42.320;23.198;2023-06-22T05:30:07;18.00;18.00;10.00
72031;PMS5003;49185;42.320;23.198;2023-06-22T05:32:33;20.50;19.75;9.00
72031;PMS5003;49185;42.320;23.198;2023-06-22T05:34:58;21.00;18.00;10.00
72031;PMS5003;49185;42.320;23.198;2023-06-22T05:37:24;21.75;19.00;11.00
72031;PMS5003;49185;42.320;23.198;2023-06-22T05:39:50;22.00;20.00;11.00
72031;PMS5003;49185;42.320;23.198;2023-06-22T05:42:15;20.33;18.67;10.00
72031;PMS5003;49185;42.320;23.198;2023-06-22T05:44:41;21.33;20.33;9.00
72031;PMS5003;49185;42.320;23.198;2023-06-22T05:47:06;21.00;19.00;10.00
72031;PMS5003;49185;42.320;23.198;2023-06-22T05:49:31;21.00;20.00;9.67
72031;PMS5003;49185;42.320;23.198;2023-06-22T05:51:57;20.00;19.67;8.33
72031;PMS5003;49185;42.320;23.198;2023-06-22T05:54:24;20.25;20.00;10.25
72031;PMS5003;49185;42.320;23.198;2023-06-22T05:56:49;21.67;20.00;10.00
72031;PMS5003;49185;42.320;23.198;2023-06-22T05:59:14;21.00;19.00;10.00
72031;PMS5003;49185;42.320;23.198;2023-06-22T06:01:40;21.00;21.00;11.00
72031;PMS5003;49185;42.320;23.198;2023-06-22T06:04:06;21.67;21.00;11.33
72031;PMS5003;49185;42.320;23.198;2023-06-22T06:06:31;21.00;21.00;10.75
72031;PMS5003;49185;42.320;23.198;2023-06-22T06:08:57;22.33;22.33;11.00
72031;PMS5003;49185;42.320;23.198;2023-06-22T06:11:22;24.00;22.00;12.00
72031;PMS5003;49185;42.320;23.198;2023-06-22T06:13:48;23.00;22.00;11.00
72031;PMS5003;49185;42.320;23.198;2023-06-22T06:16:13;45.33;36.00;19.67
72031;PMS5003;49185;42.320;23.198;2023-06-22T06:18:38;106.67;94.67;45.67
72031;PMS5003;49185;42.320;23.198;2023-06-22T06:21:04;167.00;148.67;76.00
72031;PMS5003;49185;42.320;23.198;2023-06-22T06:23:29;92.00;82.00;44.67
72031;PMS5003;49185;42.320;23.198;2023-06-22T06:25:55;48.00;38.33;23.33
72031;PMS5003;49185;42.320;23.198;2023-06-22T06:28:21;30.33;28.00;17.33
72031;PMS5003;49185;42.320;23.198;2023-06-22T06:30:47;27.00;24.50;16.50
72031;PMS5003;49185;42.320;23.198;2023-06-22T06:33:13;24.67;24.00;16.67
72031;PMS5003;49185;42.320;23.198;2023-06-22T06:35:38;21.00;21.00;13.00
72031;PMS5003;49185;42.320;23.198;2023-06-22T06:38:03;22.67;21.67;13.00
72031;PMS5003;49185;42.320;23.198;2023-06-22T06:40:29;21.00;20.33;12.00
72031;PMS5003;49185;42.320;23.198;2023-06-22T06:42:54;20.00;18.00;9.00
72031;PMS5003;49185;42.320;23.198;2023-06-22T06:45:21;20.00;18.00;8.67
72031;PMS5003;49185;42.320;23.198;2023-06-22T06:47:47;19.50;17.50;8.00
72031;PMS5003;49185;42.320;23.198;2023-06-22T06:50:14;19.50;18.50;7.50
72031;PMS5003;49185;42.320;23.198;2023-06-22T06:52:39;19.67;18.00;8.00
72031;PMS5003;49185;42.320;23.198;2023-06-22T06:55:05;20.00;17.00;6.00
72031;PMS5003;49185;42.320;23.198;2023-06-22T06:57:31;17.00;16.50;7.00
72031;PMS5003;49185;42.320;23.198;2023-06-22T06:59:56;18.00;17.00;7.00
72031;PMS5003;49185;42.320;23.198;2023-06-22T07:02:22;15.00;13.00;7.00
72031;PMS5003;49185;42.320;23.198;2023-06-22T07:04:48;16.00;14.25;7.50
72031;PMS5003;49185;42.320;23.198;2023-06-22T07:07:14;18.00;18.00;6.33
72031;PMS5003;49185;42.320;23.198;2023-06-22T07:09:39;18.75;17.00;8.75
72031;PMS5003;49185;42.320;23.198;2023-06-22T07:12:05;19.00;17.00;7.33
72031;PMS5003;49185;42.320;23.198;2023-06-22T07:14:31;20.00;18.00;8.00
72031;PMS5003;49185;42.320;23.198;2023-06-22T07:16:57;18.33;18.00;8.00
72031;PMS5003;49185;42.320;23.198;2023-06-22T07:19:26;18.00;17.50;8.00
72031;PMS5003;49185;42.320;23.198;2023-06-22T07:21:52;20.00;19.75;8.25
72031;PMS5003;49185;42.320;23.198;2023-06-22T07:24:18;18.00;18.00;9.00
72031;PMS5003;49185;42.320;23.198;2023-06-22T07:26:44;18.00;18.00;8.00
72031;PMS5003;49185;42.320;23.198;2023-06-22T07:29:09;18.00;16.00;7.00
72031;PMS5003;49185;42.320;23.198;2023-06-22T07:31:35;18.00;16.67;7.00
72031;PMS5003;49185;42.320;23.198;2023-06-22T07:34:00;18.33;17.00;7.33
72031;PMS5003;49185;42.320;23.198;2023-06-22T07:36:25;19.00;17.00;9.00
72031;PMS5003;49185;42.320;23.198;2023-06-22T07:38:51;19.00;18.00;9.00
72031;PMS5003;49185;42.320;23.198;2023-06-22T07:41:16;22.67;20.00;11.00
72031;PMS5003;49185;42.320;23.198;2023-06-22T07:43:42;24.00;22.00;11.00
72031;PMS5003;49185;42.320;23.198;2023-06-22T07:46:07;24.00;21.00;11.00
72031;PMS5003;49185;42.320;23.198;2023-06-22T07:48:33;21.00;19.00;10.00
72031;PMS5003;49185;42.320;23.198;2023-06-22T07:51:02;20.50;19.00;10.00
72031;PMS5003;49185;42.320;23.198;2023-06-22T07:53:27;19.67;17.33;9.00
72031;PMS5003;49185;42.320;23.198;2023-06-22T07:55:53;18.67;18.33;8.00
72031;PMS5003;49185;42.320;23.198;2023-06-22T07:58:18;19.00;18.00;9.00
72031;PMS5003;49185;42.320;23.198;2023-06-22T08:00:44;19.00;18.00;9.00
72031;PMS5003;49185;42.320;23.198;2023-06-22T08:03:09;21.67;20.00;9.00
72031;PMS5003;49185;42.320;23.198;2023-06-22T08:05:34;21.67;19.67;9.00
72031;PMS5003;49185;42.320;23.198;2023-06-22T08:08:00;21.67;20.00;10.33
72031;PMS5003;49185;42.320;23.198;2023-06-22T08:10:26;21.00;20.00;8.33
72031;PMS5003;49185;42.320;23.198;2023-06-22T08:12:51;21.00;20.00;8.00
72031;PMS5003;49185;42.320;23.198;2023-06-22T08:15:16;20.00;19.00;8.00
72031;PMS5003;49185;42.320;23.198;2023-06-22T08:17:43;19.00;19.00;7.75
72031;PMS5003;49185;42.320;23.198;2023-06-22T08:20:10;19.00;18.75;7.00
72031;PMS5003;49185;42.320;23.198;2023-06-22T08:22:35;21.00;19.00;8.00
72031;PMS5003;49185;42.320;23.198;2023-06-22T08:25:01;20.00;18.00;8.33
72031;PMS5003;49185;42.320;23.198;2023-06-22T08:27:26;21.00;20.00;9.00
72031;PMS5003;49185;42.320;23.198;2023-06-22T08:29:52;20.00;19.00;9.00
72031;PMS5003;49185;42.320;23.198;2023-06-22T08:32:17;17.00;17.00;8.00
72031;PMS5003;49185;42.320;23.198;2023-06-22T08:34:43;19.67;18.67;9.00
72031;PMS5003;49185;42.320;23.198;2023-06-22T08:37:08;19.00;19.00;8.00
72031;PMS5003;49185;42.320;23.198;2023-06-22T08:39:34;20.00;18.00;7.00
72031;PMS5003;49185;42.320;23.198;2023-06-22T08:42:00;20.00;17.00;9.00
72031;PMS5003;49185;42.320;23.198;2023-06-22T08:44:25;19.67;19.33;9.00
72031;PMS5003;49185;42.320;23.198;2023-06-22T08:46:50;19.33;18.00;8.00
72031;PMS5003;49185;42.320;23.198;2023-06-22T08:49:16;21.00;20.00;9.00
72031;PMS5003;49185;42.320;23.198;2023-06-22T08:51:41;20.00;20.00;7.00
72031;PMS5003;49185;42.320;23.198;2023-06-22T08:54:07;17.00;17.00;8.00
72031;PMS5003;49185;42.320;23.198;2023-06-22T08:56:32;19.00;17.33;7.00
72031;PMS5003;49185;42.320;23.198;2023-06-22T08:58:58;19.00;18.33;9.00
72031;PMS5003;49185;42.320;23.198;2023-06-22T09:01:23;19.00;16.67;9.00
72031;PMS5003;49185;42.320;23.198;2023-06-22T09:03:48;19.00;16.00;7.33
72031;PMS5003;49185;42.320;23.198;2023-06-22T09:06:14;18.00;16.00;7.67
72031;PMS5003;49185;42.320;23.198;2023-06-22T09:08:39;19.33;18.33;10.33
72031;PMS5003;49185;42.320;23.198;2023-06-22T09:11:05;19.33;18.00;9.00
72031;PMS5003;49185;42.320;23.198;2023-06-22T09:13:30;19.67;18.00;8.67
72031;PMS5003;49185;42.320;23.198;2023-06-22T09:15:56;18.00;18.00;9.00
72031;PMS5003;49185;42.320;23.198;2023-06-22T09:18:22;17.00;17.00;8.00
72031;PMS5003;49185;42.320;23.198;2023-06-22T09:20:47;19.67;18.33;8.00
72031;PMS5003;49185;42.320;23.198;2023-06-22T09:23:12;19.00;17.00;7.00
72031;PMS5003;49185;42.320;23.198;2023-06-22T09:25:38;17.00;16.00;6.00
72031;PMS5003;49185;42.320;23.198;2023-06-22T09:28:03;16.67;14.67;6.00
72031;PMS5003;49185;42.320;23.198;2023-06-22T09:30:29;16.67;15.00;7.33
72031;PMS5003;49185;42.320;23.198;2023-06-22T09:32:54;17.00;14.67;7.00
72031;PMS5003;49185;42.320;23.198;2023-06-22T09:35:20;15.00;13.33;6.00
72031;PMS5003;49185;42.320;23.198;2023-06-22T09:37:45;15.00;14.00;6.00
72031;PMS5003;49185;42.320;23.198;2023-06-22T09:40:11;15.00;14.00;7.00
72031;PMS5003;49185;42.320;23.198;2023-06-22T09:42:36;17.25;16.00;8.00
72031;PMS5003;49185;42.320;23.198;2023-06-22T09:45:02;17.00;15.00;6.00
72031;PMS5003;49185;42.320;23.198;2023-06-22T09:47:28;15.67;14.00;5.00
72031;PMS5003;49185;42.320;23.198;2023-06-22T09:49:54;15.00;15.00;7.00
72031;PMS5003;49185;42.320;23.198;2023-06-22T09:52:19;15.00;14.00;6.00
72031;PMS5003;49185;42.320;23.198;2023-06-22T09:54:45;15.33;15.00;6.00
72031;PMS5003;49185;42.320;23.198;2023-06-22T09:57:10;17.00;16.00;7.00
72031;PMS5003;49185;42.320;23.198;2023-06-22T09:59:36;15.00;15.00;6.00
72031;PMS5003;49185;42.320;23.198;2023-06-22T10:02:01;17.00;14.00;6.00
72031;PMS5003;49185;42.320;23.198;2023-06-22T10:04:26;19.33;17.00;8.00
72031;PMS5003;49185;42.320;23.198;2023-06-22T10:06:52;22.00;17.00;7.67
72031;PMS5003;49185;42.320;23.198;2023-06-22T10:09:17;17.67;14.00;6.00
72031;PMS5003;49185;42.320;23.198;2023-06-22T10:11:43;18.00;15.00;6.67
72031;PMS5003;49185;42.320;23.198;2023-06-22T10:14:08;17.00;17.00;6.67
72031;PMS5003;49185;42.320;23.198;2023-06-22T10:16:35;15.67;14.33;8.00
72031;PMS5003;49185;42.320;23.198;2023-06-22T10:19:01;18.50;16.00;9.00
72031;PMS5003;49185;42.320;23.198;2023-06-22T10:21:27;17.00;15.00;7.00
72031;PMS5003;49185;42.320;23.198;2023-06-22T10:23:52;18.00;16.00;7.00
72031;PMS5003;49185;42.320;23.198;2023-06-22T10:26:18;16.67;16.00;7.00
72031;PMS5003;49185;42.320;23.198;2023-06-22T10:28:43;17.00;16.00;6.33
72031;PMS5003;49185;42.320;23.198;2023-06-22T10:31:09;18.00;16.33;8.67
72031;PMS5003;49185;42.320;23.198;2023-06-22T10:33:34;18.00;17.00;7.00
72031;PMS5003;49185;42.320;23.198;2023-06-22T10:36:00;17.67;16.00;7.00
72031;PMS5003;49185;42.320;23.198;2023-06-22T10:38:25;20.00;20.00;10.00
72031;PMS5003;49185;42.320;23.198;2023-06-22T10:40:51;18.00;18.00;8.00
72031;PMS5003;49185;42.320;23.198;2023-06-22T10:43:16;17.00;16.00;7.33
72031;PMS5003;49185;42.320;23.198;2023-06-22T10:45:42;16.00;15.00;8.00
72031;PMS5003;49185;42.320;23.198;2023-06-22T10:48:07;18.00;15.00;8.00
72031;PMS5003;49185;42.320;23.198;2023-06-22T10:50:33;19.00;15.00;8.00
72031;PMS5003;49185;42.320;23.198;2023-06-22T10:52:58;18.00;16.00;7.00
72031;PMS5003;49185;42.320;23.198;2023-06-22T10:55:24;19.00;18.67;7.00
72031;PMS5003;49185;42.320;23.198;2023-06-22T10:57:49;16.33;16.00;8.00
72031;PMS5003;49185;42.320;23.198;2023-06-22T11:00:15;18.00;17.00;8.00
72031;PMS5003;49185;42.320;23.198;2023-06-22T11:02:40;18.00;16.00;8.00
72031;PMS5003;49185;42.320;23.198;2023-06-22T11:05:06;20.33;19.00;8.33
72031;PMS5003;49185;42.320;23.198;2023-06-22T11:07:32;18.00;16.00;7.00
72031;PMS5003;49185;42.320;23.198;2023-06-22T11:09:57;18.33;16.00;7.00
72031;PMS5003;49185;42.320;23.198;2023-06-22T11:12:22;18.67;15.00;7.33
72031;PMS5003;49185;42.320;23.198;2023-06-22T11:14:48;16.67;15.33;9.00
72031;PMS5003;49185;42.320;23.198;2023-06-22T11:17:13;17.00;17.00;7.00
72031;PMS5003;49185;42.320;23.198;2023-06-22T11:19:39;15.00;14.00;5.00
72031;PMS5003;49185;42.320;23.198;2023-06-22T11:22:04;15.00;13.00;6.00
72031;PMS5003;49185;42.320;23.198;2023-06-22T11:24:30;13.33;12.00;6.00
72031;PMS5003;49185;42.320;23.198;2023-06-22T11:26:55;17.00;16.33;7.00
72031;PMS5003;49185;42.320;23.198;2023-06-22T11:29:21;16.00;16.00;6.00
72031;PMS5003;49185;42.320;23.198;2023-06-22T11:31:46;14.00;14.00;7.00
72031;PMS5003;49185;42.320;23.198;2023-06-22T11:34:12;15.67;14.00;7.00
72031;PMS5003;49185;42.320;23.198;2023-06-22T11:36:37;18.00;14.67;7.33
72031;PMS5003;49185;42.320;23.198;2023-06-22T11:39:03;17.00;15.00;8.00
72031;PMS5003;49185;42.320;23.198;2023-06-22T11:41:28;18.00;15.33;7.00
72031;PMS5003;49185;42.320;23.198;2023-06-22T11:43:53;19.00;17.00;8.00
72031;PMS5003;49185;42.320;23.198;2023-06-22T11:46:19;17.33;16.33;8.00
72031;PMS5003;49185;42.320;23.198;2023-06-22T11:48:44;18.33;18.33;9.00
72031;PMS5003;49185;42.320;23.198;2023-06-22T11:51:10;19.00;18.00;8.00
72031;PMS5003;49185;42.320;23.198;2023-06-22T11:53:35;19.33;17.00;7.67
72031;PMS5003;49185;42.320;23.198;2023-06-22T11:56:01;19.67;17.00;9.00
72031;PMS5003;49185;42.320;23.198;2023-06-22T11:58:27;18.00;17.00;9.00
72031;PMS5003;49185;42.320;23.198;2023-06-22T12:00:53;18.00;17.33;10.00
72031;PMS5003;49185;42.320;23.198;2023-06-22T12:03:19;18.00;17.00;7.25
72031;PMS5003;49185;42.320;23.198;2023-06-22T12:05:45;16.75;15.00;6.00
72031;PMS5003;49185;42.320;23.198;2023-06-22T12:08:10;15.00;14.00;6.00
72031;PMS5003;49185;42.320;23.198;2023-06-22T12:10:35;15.33;14.00;6.67
72031;PMS5003;49185;42.320;23.198;2023-06-22T12:13:01;16.00;15.33;7.33
72031;PMS5003;49185;42.320;23.198;2023-06-22T12:15:26;17.00;16.00;7.00
72031;PMS5003;49185;42.320;23.198;2023-06-22T12:17:52;17.33;15.00;7.00
72031;PMS5003;49185;42.320;23.198;2023-06-22T12:20:18;19.00;17.00;8.00
72031;PMS5003;49185;42.320;23.198;2023-06-22T12:22:43;17.00;16.33;8.00
72031;PMS5003;49185;42.320;23.198;2023-06-22T12:25:08;16.67;16.67;7.00
72031;PMS5003;49185;42.320;23.198;2023-06-22T12:27:34;16.00;16.00;7.33
72031;PMS5003;49185;42.320;23.198;2023-06-22T12:30:00;17.00;17.00;7.25
72031;PMS5003;49185;42.320;23.198;2023-06-22T12:32:26;14.00;14.00;5.00
72031;PMS5003;49185;42.320;23.198;2023-06-22T12:34:52;15.00;14.00;6.00
72031;PMS5003;49185;42.320;23.198;2023-06-22T12:37:17;12.67;12.00;6.00
72031;PMS5003;49185;42.320;23.198;2023-06-22T12:39:43;12.33;11.33;5.00
72031;PMS5003;49185;42.320;23.198;2023-06-22T12:42:09;13.00;12.00;6.00
72031;PMS5003;49185;42.320;23.198;2023-06-22T12:44:37;13.00;13.00;6.00
72031;PMS5003;49185;42.320;23.198;2023-06-22T12:47:04;12.00;12.00;5.00
72031;PMS5003;49185;42.320;23.198;2023-06-22T12:49:29;10.00;10.00;5.00
72031;PMS5003;49185;42.320;23.198;2023-06-22T12:51:55;12.00;10.00;5.00
72031;PMS5003;49185;42.320;23.198;2023-06-22T12:54:20;11.67;10.67;4.67
72031;PMS5003;49185;42.320;23.198;2023-06-22T12:56:50;10.00;9.00;5.00
72031;PMS5003;49185;42.320;23.198;2023-06-22T12:59:16;10.00;10.00;5.00
72031;PMS5003;49185;42.320;23.198;2023-06-22T13:01:41;11.00;11.00;4.00
72031;PMS5003;49185;42.320;23.198;2023-06-22T13:04:06;11.67;10.67;4.00
72031;PMS5003;49185;42.320;23.198;2023-06-22T13:06:32;13.00;12.00;6.00
72031;PMS5003;49185;42.320;23.198;2023-06-22T13:08:57;13.00;10.00;4.67
72031;PMS5003;49185;42.320;23.198;2023-06-22T13:11:23;11.67;9.67;5.33
72031;PMS5003;49185;42.320;23.198;2023-06-22T13:13:48;7.00;5.00;3.00
72031;PMS5003;49185;42.320;23.198;2023-06-22T13:16:13;8.00;7.00;3.00
72031;PMS5003;49185;42.320;23.198;2023-06-22T13:18:39;10.00;10.00;4.67
72031;PMS5003;49185;42.320;23.198;2023-06-22T13:21:04;10.00;9.00;4.00
72031;PMS5003;49185;42.320;23.198;2023-06-22T13:23:30;8.00;8.00;4.00
72031;PMS5003;49185;42.320;23.198;2023-06-22T13:25:57;13.50;12.25;4.00
72031;PMS5003;49185;42.320;23.198;2023-06-22T13:28:23;13.75;11.50;5.00
72031;PMS5003;49185;42.320;23.198;2023-06-22T13:30:48;15.00;10.67;5.33
72031;PMS5003;49185;42.320;23.198;2023-06-22T13:33:14;12.00;10.00;6.00
72031;PMS5003;49185;42.320;23.198;2023-06-22T13:35:39;13.00;12.00;6.00
72031;PMS5003;49185;42.320;23.198;2023-06-22T13:38:05;13.00;13.00;5.00
72031;PMS5003;49185;42.320;23.198;2023-06-22T13:40:30;19.00;16.00;6.00
72031;PMS5003;49185;42.320;23.198;2023-06-22T13:42:56;18.67;17.00;7.00
72031;PMS5003;49185;42.320;23.198;2023-06-22T13:45:21;19.00;16.00;7.00
72031;PMS5003;49185;42.320;23.198;2023-06-22T13:47:47;19.00;16.00;8.00
72031;PMS5003;49185;42.320;23.198;2023-06-22T13:50:12;19.00;17.00;7.00
72031;PMS5003;49185;42.320;23.198;2023-06-22T13:52:38;18.00;17.33;7.00
72031;PMS5003;49185;42.320;23.198;2023-06-22T13:55:04;18.00;17.25;7.00
72031;PMS5003;49185;42.320;23.198;2023-06-22T13:57:30;17.25;17.25;8.00
72031;PMS5003;49185;42.320;23.198;2023-06-22T13:59:56;15.67;15.67;4.67
72031;PMS5003;49185;42.320;23.198;2023-06-22T14:02:21;14.33;12.67;3.00
72031;PMS5003;49185;42.320;23.198;2023-06-22T14:04:47;16.67;14.67;4.00
72031;PMS5003;49185;42.320;23.198;2023-06-22T14:07:12;13.00;10.67;4.00